createdAt,value
2018-08-06T00:00:05.455Z,89.8
2018-08-06T00:01:14.111Z,89.51
2018-08-06T00:02:23.036Z,90.14
2018-08-06T00:03:31.696Z,90.33
2018-08-06T00:04:40.334Z,90.33
2018-08-06T00:05:48.984Z,90.23
2018-08-06T00:06:57.623Z,90.43
2018-08-06T00:08:06.280Z,89.66
2018-08-06T00:09:15.189Z,89.76
2018-08-06T00:10:23.846Z,90.14
2018-08-06T00:11:32.480Z,90.53
2018-08-06T00:12:41.130Z,90.91
2018-08-06T00:13:50.058Z,91.19
2018-08-06T00:14:58.707Z,90.62
2018-08-06T00:16:07.354Z,91.1
2018-08-06T00:17:15.990Z,91.29
2018-08-06T00:18:24.641Z,90.81
2018-08-06T00:19:33.282Z,90.72
2018-08-06T00:20:41.941Z,90.81
2018-08-06T00:21:50.575Z,91
2018-08-06T00:22:59.491Z,90.91
2018-08-06T00:24:08.132Z,91.49
2018-08-06T00:25:16.789Z,91
2018-08-06T00:26:25.425Z,90.62
2018-08-06T00:27:34.074Z,91.49
2018-08-06T00:28:42.723Z,91.1
2018-08-06T00:29:51.360Z,91.19
2018-08-06T00:31:00.011Z,91.1
2018-08-06T00:32:08.661Z,91.29
2018-08-06T00:33:17.309Z,91.77
2018-08-06T00:34:25.957Z,91.19
2018-08-06T00:35:34.596Z,91.39
2018-08-06T00:36:43.244Z,92.06
2018-08-06T00:37:52.416Z,91.77
2018-08-06T00:39:01.070Z,91.67
2018-08-06T00:40:09.709Z,91.77
2018-08-06T00:41:18.904Z,91.86
2018-08-06T00:42:27.546Z,91.67
2018-08-06T00:43:36.460Z,91.96
2018-08-06T00:44:45.096Z,92.44
2018-08-06T00:45:54.048Z,91.67
2018-08-06T00:47:02.692Z,91.67
2018-08-06T00:48:11.347Z,91.92
2018-08-06T00:49:20.258Z,92.15
2018-08-06T00:50:28.899Z,92.11
2018-08-06T00:51:37.545Z,92.15
2018-08-06T00:52:46.454Z,92.21
2018-08-06T00:53:55.111Z,92.3
2018-08-06T00:55:04.016Z,92.78
2018-08-06T00:56:12.671Z,92.78
2018-08-06T00:57:21.307Z,92.58
2018-08-06T00:58:29.966Z,92.78
2018-08-06T00:59:38.610Z,92.87
2018-08-06T01:00:47.532Z,92.58
2018-08-06T01:01:56.704Z,92.58
2018-08-06T01:03:05.357Z,92.78
2018-08-06T01:04:14.001Z,93.26
2018-08-06T01:05:22.651Z,92.68
2018-08-06T01:06:31.291Z,93.16
2018-08-06T01:07:39.941Z,93.07
2018-08-06T01:08:48.589Z,93.07
2018-08-06T01:09:57.497Z,93.35
2018-08-06T01:11:06.145Z,93.45
2018-08-06T01:12:15.043Z,93.35
2018-08-06T01:13:23.695Z,92.97
2018-08-06T01:14:32.341Z,93.26
2018-08-06T01:15:40.992Z,93.35
2018-08-06T01:16:49.629Z,94.02
2018-08-06T01:17:58.281Z,93.64
2018-08-06T01:19:07.187Z,93.64
2018-08-06T01:20:16.108Z,94.02
2018-08-06T01:21:24.747Z,94.4
2018-08-06T01:22:33.389Z,93.98
2018-08-06T01:23:42.298Z,94.36
2018-08-06T01:24:50.959Z,94.45
2018-08-06T01:25:59.601Z,94.74
2018-08-06T01:27:08.243Z,94.26
2018-08-06T01:28:16.886Z,95.03
2018-08-06T01:29:25.530Z,94.65
2018-08-06T01:30:34.185Z,95.03
2018-08-06T01:31:42.825Z,94.93
2018-08-06T01:32:51.470Z,94.74
2018-08-06T01:34:00.113Z,95.03
2018-08-06T01:35:08.762Z,94.55
2018-08-06T01:36:17.670Z,94.84
2018-08-06T01:37:26.320Z,95.12
2018-08-06T01:38:34.959Z,94.84
2018-08-06T01:39:43.608Z,95.03
2018-08-06T01:40:52.256Z,95.03
2018-08-06T01:42:00.902Z,95.79
2018-08-06T01:43:09.541Z,95.61
2018-08-06T01:44:18.189Z,96.18
2018-08-06T01:45:26.833Z,95.89
2018-08-06T01:46:35.483Z,95.31
2018-08-06T01:47:44.129Z,95.51
2018-08-06T01:48:52.768Z,96.18
2018-08-06T01:50:01.415Z,95.31
2018-08-06T01:51:10.057Z,95.61
2018-08-06T01:52:18.705Z,95.79
2018-08-06T01:53:27.349Z,95.51
2018-08-06T01:54:35.994Z,95.79
2018-08-06T01:55:44.638Z,95.56
2018-08-06T01:56:53.287Z,96.22
2018-08-06T01:58:01.928Z,96.56
2018-08-06T01:59:10.576Z,96.42
2018-08-06T02:00:19.221Z,96.99
2018-08-06T02:01:27.873Z,97.08
2018-08-06T02:02:36.516Z,96.89
2018-08-06T02:03:45.160Z,97.37
2018-08-06T02:04:54.073Z,97.18
2018-08-06T02:06:02.718Z,97.28
2018-08-06T02:07:11.369Z,97.08
2018-08-06T02:08:20.013Z,97.18
2018-08-06T02:09:28.666Z,97.28
2018-08-06T02:10:37.567Z,97.47
2018-08-06T02:11:46.218Z,97.47
2018-08-06T02:12:54.863Z,97.28
2018-08-06T02:14:03.779Z,98.04
2018-08-06T02:15:12.425Z,98.04
2018-08-06T02:16:21.337Z,97.85
2018-08-06T02:17:29.981Z,98.14
2018-08-06T02:18:38.891Z,97.95
2018-08-06T02:19:47.535Z,97.47
2018-08-06T02:20:56.173Z,97.95
2018-08-06T02:22:04.822Z,97.85
2018-08-06T02:23:13.471Z,97.66
2018-08-06T02:24:22.117Z,97.95
2018-08-06T02:25:30.758Z,98.04
2018-08-06T02:26:39.404Z,98.04
2018-08-06T02:27:48.045Z,97.8
2018-08-06T02:28:56.703Z,98.14
2018-08-06T02:30:05.339Z,97.8
2018-08-06T02:31:14.260Z,97.9
2018-08-06T02:32:23.163Z,98.38
2018-08-06T02:33:32.084Z,98.71
2018-08-06T02:34:40.726Z,98.38
2018-08-06T02:35:49.383Z,98.57
2018-08-06T02:36:58.028Z,98.95
2018-08-06T02:38:07.210Z,98.43
2018-08-06T02:39:15.854Z,98.28
2018-08-06T02:40:24.506Z,98.75
2018-08-06T02:41:33.694Z,99.38
2018-08-06T02:42:42.338Z,98.66
2018-08-06T02:43:50.987Z,98.38
2018-08-06T02:44:59.629Z,99.24
2018-08-06T02:46:08.833Z,99.43
2018-08-06T02:47:17.466Z,99.43
2018-08-06T02:48:26.119Z,99.52
2018-08-06T02:49:34.759Z,99.52
2018-08-06T02:50:43.673Z,99.81
2018-08-06T02:51:52.567Z,99.9
2018-08-06T02:53:01.492Z,99.99
2018-08-06T02:54:10.132Z,99.99
2018-08-06T02:55:18.779Z,99.99
2018-08-06T02:56:27.677Z,99.99
2018-08-06T02:57:36.325Z,99.99
2018-08-06T02:58:44.979Z,99.99
2018-08-06T02:59:53.626Z,99.99
2018-08-06T03:01:02.273Z,99.99
2018-08-06T03:02:10.908Z,99.99
2018-08-06T03:03:19.559Z,99.99
2018-08-06T03:04:28.200Z,99.99
2018-08-06T03:05:36.853Z,99.99
2018-08-06T03:06:45.490Z,99.99
2018-08-06T03:07:54.137Z,99.99
2018-08-06T03:09:02.777Z,99.71
2018-08-06T03:10:11.514Z,99.99
2018-08-06T03:11:20.726Z,99.99
2018-08-06T03:12:29.640Z,99.99
2018-08-06T03:13:38.282Z,99.99
2018-08-06T03:14:46.934Z,99.99
2018-08-06T03:15:55.580Z,99.99
2018-08-06T03:17:04.656Z,99.99
2018-08-06T03:18:13.241Z,99.99
2018-08-06T03:19:21.882Z,99.99
2018-08-06T03:20:30.539Z,99.99
2018-08-06T03:21:39.180Z,99.99
2018-08-06T03:22:47.831Z,99.99
2018-08-06T03:23:56.464Z,99.99
2018-08-06T03:25:05.119Z,99.99
2018-08-06T03:26:13.763Z,99.99
2018-08-06T03:27:22.672Z,99.99
2018-08-06T03:28:31.572Z,99.99
2018-08-06T03:29:40.296Z,99.99
2018-08-06T03:30:48.866Z,99.99
2018-08-06T03:31:57.781Z,99.99
2018-08-06T03:33:06.426Z,99.99
2018-08-06T03:34:15.074Z,99.99
2018-08-06T03:35:23.717Z,99.99
2018-08-06T03:36:32.364Z,99.99
2018-08-06T03:37:41.009Z,99.99
2018-08-06T03:38:49.651Z,99.99
2018-08-06T03:39:58.294Z,99.99
2018-08-06T03:41:06.942Z,99.99
2018-08-06T03:42:15.593Z,99.99
2018-08-06T03:43:24.232Z,99.99
2018-08-06T03:44:33.143Z,99.99
2018-08-06T03:45:41.785Z,99.99
2018-08-06T03:46:50.433Z,99.99
2018-08-06T03:47:59.074Z,99.99
2018-08-06T03:49:07.724Z,99.99
2018-08-06T03:50:16.364Z,99.99
2018-08-06T03:51:25.014Z,99.99
2018-08-06T03:52:33.653Z,99.99
2018-08-06T03:53:43.000Z,99.99
2018-08-06T03:54:51.644Z,99.99
2018-08-06T03:56:00.286Z,99.99
2018-08-06T03:57:08.934Z,99.99
2018-08-06T03:58:17.583Z,99.99
2018-08-06T03:59:26.220Z,99.99
2018-08-06T04:00:34.855Z,99.99
2018-08-06T04:01:43.505Z,99.99
2018-08-06T04:02:52.156Z,99.99
2018-08-06T04:04:00.798Z,99.99
2018-08-06T04:05:09.434Z,99.99
2018-08-06T04:06:18.084Z,99.99
2018-08-06T04:07:26.989Z,99.99
2018-08-06T04:08:35.636Z,99.99
2018-08-06T04:09:44.274Z,99.99
2018-08-06T04:10:52.920Z,99.99
2018-08-06T04:12:01.564Z,99.99
2018-08-06T04:13:10.214Z,99.99
2018-08-06T04:14:18.860Z,99.99
2018-08-06T04:15:27.506Z,99.99
2018-08-06T04:16:36.148Z,99.99
2018-08-06T04:17:44.800Z,99.99
2018-08-06T04:18:53.448Z,99.99
2018-08-06T04:20:02.099Z,99.99
2018-08-06T04:21:10.734Z,99.99
2018-08-06T04:22:19.377Z,99.99
2018-08-06T04:23:28.284Z,99.99
2018-08-06T04:24:37.193Z,99.99
2018-08-06T04:25:45.834Z,99.99
2018-08-06T04:26:54.479Z,99.99
2018-08-06T04:28:03.118Z,99.99
2018-08-06T04:29:11.767Z,99.99
2018-08-06T04:30:20.407Z,99.99
2018-08-06T04:31:29.055Z,99.99
2018-08-06T04:32:37.713Z,99.99
2018-08-06T04:33:46.698Z,99.99
2018-08-06T04:34:55.343Z,99.99
2018-08-06T04:36:03.989Z,99.99
2018-08-06T04:37:12.640Z,99.99
2018-08-06T04:38:21.367Z,99.99
2018-08-06T04:39:29.924Z,99.99
2018-08-06T04:40:38.569Z,99.99
2018-08-06T04:41:47.217Z,99.99
2018-08-06T04:42:55.859Z,99.99
2018-08-06T04:44:04.507Z,99.99
2018-08-06T04:45:13.148Z,99.99
2018-08-06T04:46:22.069Z,99.99
2018-08-06T04:47:30.700Z,99.99
2018-08-06T04:48:39.608Z,99.99
2018-08-06T04:49:48.249Z,99.99
2018-08-06T04:50:56.892Z,99.99
2018-08-06T04:52:05.539Z,99.99
2018-08-06T04:53:14.187Z,99.99
2018-08-06T04:54:22.829Z,99.99
2018-08-06T04:55:31.470Z,99.99
2018-08-06T04:56:40.115Z,99.99
2018-08-06T04:57:48.761Z,99.99
2018-08-06T04:58:57.406Z,99.99
2018-08-06T05:00:06.045Z,99.99
2018-08-06T05:01:14.696Z,99.99
2018-08-06T05:02:23.336Z,99.99
2018-08-06T05:03:31.982Z,99.99
2018-08-06T05:04:40.620Z,99.99
2018-08-06T05:05:49.267Z,99.99
2018-08-06T05:06:57.950Z,99.99
2018-08-06T05:08:06.558Z,99.99
2018-08-06T05:09:15.732Z,99.99
2018-08-06T05:10:24.373Z,99.99
2018-08-06T05:11:33.016Z,99.99
2018-08-06T05:12:41.931Z,99.99
2018-08-06T05:13:50.581Z,99.99
2018-08-06T05:14:59.219Z,99.99
2018-08-06T05:16:07.864Z,99.99
2018-08-06T05:17:16.507Z,99.99
2018-08-06T05:18:25.155Z,99.99
2018-08-06T05:19:33.839Z,99.99
2018-08-06T05:20:42.443Z,99.99
2018-08-06T05:21:51.083Z,99.96
2018-08-06T05:22:59.737Z,99.99
2018-08-06T05:24:08.384Z,99.86
2018-08-06T05:25:17.031Z,99.86
2018-08-06T05:26:25.676Z,99.67
2018-08-06T05:27:34.317Z,99
2018-08-06T05:28:42.971Z,98.95
2018-08-06T05:29:51.612Z,98.86
2018-08-06T05:31:00.263Z,99.05
2018-08-06T05:32:08.899Z,98.57
2018-08-06T05:33:17.825Z,98.47
2018-08-06T05:34:26.468Z,98.28
2018-08-06T05:35:35.115Z,97.8
2018-08-06T05:36:44.011Z,97.52
2018-08-06T05:37:52.665Z,97.8
2018-08-06T05:39:01.308Z,98
2018-08-06T05:40:09.958Z,98.09
2018-08-06T05:41:18.881Z,98
2018-08-06T05:42:27.530Z,97.52
2018-08-06T05:43:36.442Z,98
2018-08-06T05:44:45.092Z,98.38
2018-08-06T05:45:53.741Z,98.76
2018-08-06T05:47:02.381Z,98.47
2018-08-06T05:48:11.037Z,98.38
2018-08-06T05:49:19.940Z,98.09
2018-08-06T05:50:28.599Z,97.71
2018-08-06T05:51:37.232Z,97.75
2018-08-06T05:52:45.885Z,98.14
2018-08-06T05:53:54.798Z,97.47
2018-08-06T05:55:03.452Z,96.89
2018-08-06T05:56:12.086Z,96.89
2018-08-06T05:57:20.734Z,96.89
2018-08-06T05:58:29.379Z,96.22
2018-08-06T05:59:38.032Z,96.32
2018-08-06T06:00:46.951Z,96.61
2018-08-06T06:01:55.592Z,95.89
2018-08-06T06:03:04.232Z,95.51
2018-08-06T06:04:12.875Z,95.6
2018-08-06T06:05:21.529Z,95.03
2018-08-06T06:06:30.170Z,94.84
2018-08-06T06:07:38.823Z,95.22
2018-08-06T06:08:47.459Z,94.84
2018-08-06T06:09:56.115Z,94.74
2018-08-06T06:11:05.022Z,94.45
2018-08-06T06:12:13.667Z,94.64
2018-08-06T06:13:22.307Z,94.55
2018-08-06T06:14:30.960Z,94.07
2018-08-06T06:15:39.609Z,94.21
2018-08-06T06:16:48.256Z,94.59
2018-08-06T06:17:56.900Z,92.77
2018-08-06T06:19:05.580Z,92.3
2018-08-06T06:20:14.463Z,91.82
2018-08-06T06:21:23.107Z,91.67
2018-08-06T06:22:31.750Z,91
2018-08-06T06:23:40.400Z,91.48
2018-08-06T06:24:49.043Z,90.04
2018-08-06T06:25:57.961Z,89.22
2018-08-06T06:27:06.603Z,89.03
2018-08-06T06:28:15.253Z,88.93
2018-08-06T06:29:23.897Z,89.12
2018-08-06T06:30:32.806Z,89.22
2018-08-06T06:31:41.715Z,88.84
2018-08-06T06:32:50.366Z,87.88
2018-08-06T06:33:59.009Z,87.92
2018-08-06T06:35:07.665Z,86.77
2018-08-06T06:36:16.307Z,86.68
2018-08-06T06:37:24.956Z,86.1
2018-08-06T06:38:33.604Z,85.52
2018-08-06T06:39:42.253Z,85.24
2018-08-06T06:40:50.900Z,84.08
2018-08-06T06:41:59.573Z,83.36
2018-08-06T06:43:08.224Z,82.59
2018-08-06T06:44:16.874Z,82.78
2018-08-06T06:45:25.528Z,81.76
2018-08-06T06:46:34.179Z,81.76
2018-08-06T06:47:43.355Z,82.34
2018-08-06T06:48:52.425Z,82.24
2018-08-06T06:50:01.016Z,82.05
2018-08-06T06:51:09.656Z,81.67
2018-08-06T06:52:18.307Z,82.43
2018-08-06T06:53:26.953Z,81.09
2018-08-06T06:54:36.089Z,81.57
2018-08-06T06:55:44.735Z,81.57
2018-08-06T06:56:53.921Z,81.04
2018-08-06T06:58:02.571Z,80.75
2018-08-06T06:59:11.213Z,79.5
2018-08-06T07:00:19.864Z,79.98
2018-08-06T07:01:28.510Z,79.3
2018-08-06T07:02:37.156Z,80.07
2018-08-06T07:03:45.799Z,80.07
2018-08-06T07:04:54.447Z,79.02
2018-08-06T07:06:03.096Z,79.35
2018-08-06T07:07:11.746Z,78.77
2018-08-06T07:08:20.391Z,78.48
2018-08-06T07:09:29.041Z,77.33
2018-08-06T07:10:37.687Z,78.58
2018-08-06T07:11:46.335Z,79.63
2018-08-06T07:12:54.977Z,80.11
2018-08-06T07:14:03.651Z,80.79
2018-08-06T07:15:12.279Z,80.3
2018-08-06T07:16:20.927Z,80.88
2018-08-06T07:17:29.581Z,80.4
2018-08-06T07:18:38.224Z,81.17
2018-08-06T07:19:46.874Z,80.6
2018-08-06T07:20:56.048Z,80.69
2018-08-06T07:22:04.704Z,80.11
2018-08-06T07:23:13.342Z,79.82
2018-08-06T07:24:22.262Z,79.63
2018-08-06T07:25:30.902Z,79.1
2018-08-06T07:26:39.565Z,78.42
2018-08-06T07:27:48.463Z,78.52
2018-08-06T07:28:57.113Z,78.13
2018-08-06T07:30:05.771Z,76.88
2018-08-06T07:31:14.428Z,76.78
2018-08-06T07:32:23.072Z,75.73
2018-08-06T07:33:31.723Z,75.86
2018-08-06T07:34:40.362Z,75.19
2018-08-06T07:35:49.007Z,74.8
2018-08-06T07:36:57.797Z,73.3
2018-08-06T07:38:06.738Z,73.49
2018-08-06T07:39:15.395Z,73.78
2018-08-06T07:40:24.035Z,73.78
2018-08-06T07:41:32.692Z,73.68
2018-08-06T07:42:41.335Z,72.91
2018-08-06T07:43:49.989Z,72.05
2018-08-06T07:44:58.894Z,72.33
2018-08-06T07:46:07.554Z,72.05
2018-08-06T07:47:16.199Z,72.72
2018-08-06T07:48:24.853Z,72.18
2018-08-06T07:49:33.551Z,71.89
2018-08-06T07:50:42.545Z,72.56
2018-08-06T07:51:51.257Z,71.6
2018-08-06T07:52:59.910Z,70.83
2018-08-06T07:54:09.832Z,71.31
2018-08-06T07:55:18.573Z,70.54
2018-08-06T07:56:27.225Z,70.67
2018-08-06T07:57:35.871Z,69.8
2018-08-06T07:58:44.530Z,69.9
2018-08-06T07:59:53.170Z,69.8
2018-08-06T08:01:01.826Z,69.51
2018-08-06T08:02:10.474Z,69.61
2018-08-06T08:03:19.132Z,68.16
2018-08-06T08:04:27.769Z,67.58
2018-08-06T08:05:36.423Z,68.01
2018-08-06T08:06:45.271Z,68.1
2018-08-06T08:07:53.941Z,68.1
2018-08-06T08:09:02.580Z,67.04
2018-08-06T08:10:11.657Z,67.62
2018-08-06T08:11:20.890Z,67.91
2018-08-06T08:12:29.604Z,67.71
2018-08-06T08:13:38.314Z,66.88
2018-08-06T08:14:47.234Z,66.59
2018-08-06T08:15:56.457Z,66.78
2018-08-06T08:17:05.393Z,67.27
2018-08-06T08:18:14.228Z,66.2
2018-08-06T08:19:23.020Z,66.78
2018-08-06T08:20:31.871Z,65.85
2018-08-06T08:21:40.648Z,64.69
2018-08-06T08:22:49.778Z,65.27
2018-08-06T08:23:58.508Z,64.79
2018-08-06T08:25:07.153Z,65.17
2018-08-06T08:26:15.821Z,64.59
2018-08-06T08:27:24.467Z,63.73
2018-08-06T08:28:33.113Z,62.76
2018-08-06T08:29:41.760Z,61.63
2018-08-06T08:30:50.409Z,62.31
2018-08-06T08:31:59.621Z,61.63
2018-08-06T08:33:08.266Z,61.34
2018-08-06T08:34:16.922Z,60.96
2018-08-06T08:35:25.567Z,60.38
2018-08-06T08:36:34.225Z,60.18
2018-08-06T08:37:42.871Z,59.83
2018-08-06T08:38:51.525Z,59.92
2018-08-06T08:40:00.166Z,59.63
2018-08-06T08:41:08.827Z,59.73
2018-08-06T08:42:17.740Z,59.83
2018-08-06T08:43:26.392Z,59.25
2018-08-06T08:44:35.079Z,59.38
2018-08-06T08:45:44.015Z,58.8
2018-08-06T08:46:52.664Z,59.28
2018-08-06T08:48:01.317Z,59.18
2018-08-06T08:49:10.236Z,58.8
2018-08-06T08:50:19.139Z,57.92
2018-08-06T08:51:27.794Z,58.24
2018-08-06T08:52:36.446Z,58.72
2018-08-06T08:53:46.455Z,58.14
2018-08-06T08:54:55.611Z,58.04
2018-08-06T08:56:04.299Z,57.76
2018-08-06T08:57:12.948Z,56.5
2018-08-06T08:58:21.607Z,56.88
2018-08-06T08:59:30.319Z,56.7
2018-08-06T09:00:38.972Z,56.98
2018-08-06T09:01:47.622Z,56.79
2018-08-06T09:02:56.547Z,56.11
2018-08-06T09:04:05.457Z,55.53
2018-08-06T09:05:14.105Z,55.56
2018-08-06T09:06:23.020Z,55.85
2018-08-06T09:07:31.667Z,55.56
2018-08-06T09:08:40.328Z,54.49
2018-08-06T09:09:48.982Z,53.91
2018-08-06T09:10:57.638Z,54.43
2018-08-06T09:12:06.281Z,54.21
2018-08-06T09:13:14.938Z,54.62
2018-08-06T09:14:23.586Z,54.43
2018-08-06T09:15:32.505Z,53.85
2018-08-06T09:16:41.148Z,54.33
2018-08-06T09:17:49.804Z,54.03
2018-08-06T09:18:58.453Z,53.65
2018-08-06T09:20:07.108Z,53.55
2018-08-06T09:21:15.838Z,54.03
2018-08-06T09:22:24.451Z,53.85
2018-08-06T09:23:33.324Z,53.75
2018-08-06T09:24:41.975Z,53.07
2018-08-06T09:25:50.628Z,52.8
2018-08-06T09:26:59.545Z,52.49
2018-08-06T09:28:08.199Z,53
2018-08-06T09:29:16.850Z,52.22
2018-08-06T09:30:25.504Z,52
2018-08-06T09:31:34.153Z,52.51
2018-08-06T09:32:42.803Z,53
2018-08-06T09:33:51.517Z,52.9
2018-08-06T09:35:00.718Z,52.51
2018-08-06T09:36:09.367Z,52.12
2018-08-06T09:37:18.022Z,51.93
2018-08-06T09:38:26.675Z,50.77
2018-08-06T09:39:35.328Z,50.29
2018-08-06T09:40:43.978Z,50.38
2018-08-06T09:41:52.627Z,50.48
2018-08-06T09:43:01.539Z,49.9
2018-08-06T09:44:10.190Z,49.61
2018-08-06T09:45:18.854Z,50.12
2018-08-06T09:46:27.497Z,50.31
2018-08-06T09:47:36.149Z,50.41
2018-08-06T09:48:44.935Z,49.82
2018-08-06T09:49:53.453Z,49.44
2018-08-06T09:51:02.104Z,49.63
2018-08-06T09:52:12.894Z,48.27
2018-08-06T09:53:25.320Z,48.76
2018-08-06T09:54:34.236Z,48.37
2018-08-06T09:55:42.885Z,48.3
2018-08-06T09:56:51.543Z,48.97
2018-08-06T09:58:00.189Z,48.2
2018-08-06T09:59:09.113Z,48.49
2018-08-06T10:00:17.765Z,48.1
2018-08-06T10:01:26.947Z,47.72
2018-08-06T10:02:35.863Z,48.1
2018-08-06T10:03:44.512Z,49.07
2018-08-06T10:04:53.175Z,48.3
2018-08-06T10:06:01.979Z,47.74
2018-08-06T10:07:10.998Z,47.16
2018-08-06T10:08:19.648Z,46.38
2018-08-06T10:09:28.302Z,47.16
2018-08-06T10:10:37.217Z,47.18
2018-08-06T10:11:45.874Z,46.79
2018-08-06T10:12:54.522Z,46.89
2018-08-06T10:14:03.177Z,46.77
2018-08-06T10:15:11.825Z,47.16
2018-08-06T10:16:20.485Z,46.38
2018-08-06T10:17:29.402Z,46.48
2018-08-06T10:18:38.087Z,46.28
2018-08-06T10:19:46.700Z,45.43
2018-08-06T10:20:55.349Z,45.43
2018-08-06T10:22:04.010Z,44.85
2018-08-06T10:23:12.659Z,44.97
2018-08-06T10:24:21.592Z,44.95
2018-08-06T10:25:30.236Z,45.26
2018-08-06T10:26:38.897Z,44.48
2018-08-06T10:27:47.802Z,44
2018-08-06T10:28:56.463Z,44.29
2018-08-06T10:30:05.121Z,44.19
2018-08-06T10:31:13.770Z,44.58
2018-08-06T10:32:22.417Z,43.92
2018-08-06T10:33:31.103Z,43.9
2018-08-06T10:34:39.748Z,45.57
2018-08-06T10:35:48.666Z,45.38
2018-08-06T10:36:57.330Z,44.79
2018-08-06T10:38:06.227Z,45.28
2018-08-06T10:39:15.107Z,44.7
2018-08-06T10:40:24.017Z,45.28
2018-08-06T10:41:32.977Z,43.73
2018-08-06T10:42:41.594Z,44.21
2018-08-06T10:43:50.214Z,43.44
2018-08-06T10:44:58.832Z,43.05
2018-08-06T10:46:07.454Z,43.15
2018-08-06T10:47:16.073Z,43.07
2018-08-06T10:48:24.715Z,43.26
2018-08-06T10:49:33.720Z,42.87
2018-08-06T10:50:42.336Z,43.16
2018-08-06T10:51:50.959Z,42.7
2018-08-06T10:52:59.840Z,44.06
2018-08-06T10:54:08.721Z,44.26
2018-08-06T10:55:17.340Z,43.38
2018-08-06T10:56:25.962Z,42.5
2018-08-06T10:57:34.843Z,41.93
2018-08-06T10:58:43.459Z,42.11
2018-08-06T10:59:52.079Z,42.31
2018-08-06T11:01:00.699Z,44.16
2018-08-06T11:02:09.320Z,43.96
2018-08-06T11:03:17.940Z,44.45
2018-08-06T11:04:26.609Z,43.48
2018-08-06T11:05:35.179Z,42.6
2018-08-06T11:06:43.813Z,42.11
2018-08-06T11:07:52.694Z,41.16
2018-08-06T11:09:01.600Z,42.21
2018-08-06T11:10:10.218Z,41.63
2018-08-06T11:11:18.837Z,41.93
2018-08-06T11:12:27.455Z,41.63
2018-08-06T11:13:36.078Z,41.34
2018-08-06T11:14:44.695Z,41.93
2018-08-06T11:15:53.313Z,42.31
2018-08-06T11:17:01.940Z,41.63
2018-08-06T11:18:10.811Z,41.75
2018-08-06T11:19:19.434Z,41.65
2018-08-06T11:20:28.346Z,40.58
2018-08-06T11:21:37.289Z,41.26
2018-08-06T11:22:45.902Z,41.09
2018-08-06T11:23:54.787Z,41.67
2018-08-06T11:25:03.406Z,41.77
2018-08-06T11:26:12.027Z,40.31
2018-08-06T11:27:20.645Z,40.31
2018-08-06T11:28:29.276Z,40.89
2018-08-06T11:29:37.881Z,40.5
2018-08-06T11:30:46.502Z,41.19
2018-08-06T11:31:55.127Z,39.62
2018-08-06T11:33:03.750Z,40.31
2018-08-06T11:34:12.371Z,41.09
2018-08-06T11:35:21.244Z,40.81
2018-08-06T11:36:29.869Z,40.7
2018-08-06T11:37:38.745Z,40.62
2018-08-06T11:38:47.369Z,40.42
2018-08-06T11:39:55.983Z,39.55
2018-08-06T11:41:04.607Z,39.16
2018-08-06T11:42:13.224Z,39.36
2018-08-06T11:43:22.110Z,39.06
2018-08-06T11:44:30.725Z,39.36
2018-08-06T11:45:39.347Z,39.06
2018-08-06T11:46:47.967Z,39.08
2018-08-06T11:47:56.593Z,38.87
2018-08-06T11:49:05.471Z,38.98
2018-08-06T11:50:14.346Z,39.08
2018-08-06T11:51:22.968Z,39.18
2018-08-06T11:52:31.590Z,38.4
2018-08-06T11:53:40.474Z,37.71
2018-08-06T11:54:49.355Z,38.01
2018-08-06T11:55:57.976Z,38.79
2018-08-06T11:57:06.592Z,38.3
2018-08-06T11:58:15.217Z,39.29
2018-08-06T11:59:24.096Z,38.9
2018-08-06T12:00:32.717Z,37.83
2018-08-06T12:01:41.335Z,37.73
2018-08-06T12:02:50.233Z,37.35
2018-08-06T12:03:58.854Z,37.35
2018-08-06T12:05:07.479Z,36.86
2018-08-06T12:06:16.093Z,37.07
2018-08-06T12:07:24.718Z,37.65
2018-08-06T12:08:33.617Z,37.17
2018-08-06T12:09:42.228Z,37.73
2018-08-06T12:10:50.854Z,38.12
2018-08-06T12:11:59.998Z,37.54
2018-08-06T12:13:08.615Z,37.45
2018-08-06T12:14:17.239Z,37.54
2018-08-06T12:15:25.855Z,37.83
2018-08-06T12:16:34.480Z,38.04
2018-08-06T12:17:43.371Z,37.45
2018-08-06T12:18:51.994Z,37.35
2018-08-06T12:20:00.613Z,37.07
2018-08-06T12:21:09.274Z,37.37
2018-08-06T12:22:17.852Z,36.98
2018-08-06T12:23:26.477Z,36.49
2018-08-06T12:24:35.088Z,37.07
2018-08-06T12:25:43.716Z,36.49
2018-08-06T12:26:52.714Z,36.58
2018-08-06T12:28:01.336Z,36.39
2018-08-06T12:29:09.957Z,35.9
2018-08-06T12:30:18.841Z,35.72
2018-08-06T12:31:27.759Z,35.33
2018-08-06T12:32:36.336Z,35.43
2018-08-06T12:33:44.965Z,35.24
2018-08-06T12:34:53.578Z,35.53
2018-08-06T12:36:02.201Z,36.02
2018-08-06T12:37:10.817Z,35.82
2018-08-06T12:38:19.508Z,36.11
2018-08-06T12:39:28.059Z,36.31
2018-08-06T12:40:36.681Z,36.11
2018-08-06T12:41:45.300Z,35.63
2018-08-06T12:42:53.930Z,35.72
2018-08-06T12:44:02.556Z,35.94
2018-08-06T12:45:11.697Z,35.64
2018-08-06T12:46:20.692Z,35.45
2018-08-06T12:47:29.203Z,35.74
2018-08-06T12:48:37.830Z,35.64
2018-08-06T12:49:46.450Z,35.16
2018-08-06T12:50:55.077Z,35.55
2018-08-06T12:52:03.693Z,35.35
2018-08-06T12:53:12.319Z,35.55
2018-08-06T12:54:20.946Z,35.25
2018-08-06T12:55:29.594Z,34.96
2018-08-06T12:56:38.257Z,35.06
2018-08-06T12:57:46.957Z,34.96
2018-08-06T12:58:55.838Z,34.77
2018-08-06T13:00:04.469Z,34.96
2018-08-06T13:01:13.085Z,35.35
2018-08-06T13:02:21.718Z,34.96
2018-08-06T13:03:30.390Z,34.96
2018-08-06T13:04:39.059Z,34.18
2018-08-06T13:05:47.694Z,34.28
2018-08-06T13:06:56.372Z,34.18
2018-08-06T13:08:05.021Z,35.55
2018-08-06T13:09:13.642Z,34.67
2018-08-06T13:10:22.270Z,34.18
2018-08-06T13:11:30.888Z,34.09
2018-08-06T13:12:39.507Z,33.98
2018-08-06T13:13:48.132Z,33.69
2018-08-06T13:14:56.755Z,33.51
2018-08-06T13:16:05.376Z,33.8
2018-08-06T13:17:13.999Z,32.82
2018-08-06T13:18:22.633Z,33.12
2018-08-06T13:19:31.340Z,33.22
2018-08-06T13:20:39.969Z,34.09
2018-08-06T13:21:48.595Z,34.08
2018-08-06T13:22:57.480Z,33.3
2018-08-06T13:24:06.117Z,34.47
2018-08-06T13:25:14.793Z,34.18
2018-08-06T13:26:23.702Z,33.79
2018-08-06T13:27:32.324Z,33.89
2018-08-06T13:28:41.214Z,33.98
2018-08-06T13:29:49.835Z,34.18
2018-08-06T13:30:58.722Z,34.29
2018-08-06T13:32:07.345Z,34.18
2018-08-06T13:33:15.965Z,33.7
2018-08-06T13:34:24.589Z,33.22
2018-08-06T13:35:33.212Z,33.41
2018-08-06T13:36:42.326Z,33.31
2018-08-06T13:37:51.276Z,32.84
2018-08-06T13:38:59.902Z,33.43
2018-08-06T13:40:08.526Z,34.6
2018-08-06T13:41:17.406Z,33.62
2018-08-06T13:42:26.033Z,32.92
2018-08-06T13:43:34.656Z,32.84
2018-08-06T13:44:43.537Z,32.53
2018-08-06T13:45:52.159Z,32.16
2018-08-06T13:47:00.844Z,32.65
2018-08-06T13:48:09.405Z,32.82
2018-08-06T13:49:18.028Z,33.33
2018-08-06T13:50:26.650Z,33.12
2018-08-06T13:51:35.282Z,34.29
2018-08-06T13:52:43.998Z,32.04
2018-08-06T13:53:52.640Z,30.79
2018-08-06T13:55:01.286Z,31.65
2018-08-06T13:56:09.947Z,33.23
2018-08-06T13:57:18.568Z,32.06
2018-08-06T13:58:27.189Z,32.06
2018-08-06T13:59:35.852Z,30.88
2018-08-06T14:00:44.430Z,31.38
2018-08-06T14:01:53.387Z,31.87
2018-08-06T14:03:02.264Z,32.84
2018-08-06T14:04:10.889Z,32.84
2018-08-06T14:05:19.595Z,31.87
2018-08-06T14:06:28.144Z,31.46
2018-08-06T14:07:36.768Z,31.95
2018-08-06T14:08:45.644Z,32.04
2018-08-06T14:09:54.565Z,31.08
2018-08-06T14:11:03.232Z,32.16
2018-08-06T14:12:12.111Z,32.04
2018-08-06T14:13:20.732Z,31.85
2018-08-06T14:14:29.350Z,31.26
2018-08-06T14:15:38.238Z,31.28
2018-08-06T14:16:46.915Z,31.38
2018-08-06T14:17:55.807Z,30.69
2018-08-06T14:19:04.430Z,31.18
2018-08-06T14:20:13.046Z,30.88
2018-08-06T14:21:21.670Z,31.28
2018-08-06T14:22:30.542Z,32.26
2018-08-06T14:23:39.433Z,32.75
2018-08-06T14:24:48.046Z,31.96
2018-08-06T14:25:56.950Z,32.35
2018-08-06T14:27:05.549Z,32.73
2018-08-06T14:28:14.184Z,32.24
2018-08-06T14:29:22.798Z,31.56
2018-08-06T14:30:31.461Z,31.75
2018-08-06T14:31:40.064Z,31.77
2018-08-06T14:32:48.671Z,32.06
2018-08-06T14:33:57.292Z,32.06
2018-08-06T14:35:05.916Z,32.06
2018-08-06T14:36:14.536Z,32.06
2018-08-06T14:37:23.158Z,32.16
2018-08-06T14:38:31.787Z,31.87
2018-08-06T14:39:40.409Z,32.55
2018-08-06T14:40:49.031Z,31.96
2018-08-06T14:41:57.647Z,32.06
2018-08-06T14:43:06.277Z,32.84
2018-08-06T14:44:14.900Z,33.33
2018-08-06T14:45:23.785Z,34.21
2018-08-06T14:46:32.400Z,33.9
2018-08-06T14:47:41.035Z,32.43